Time;durP1;ratioP1;P1;durP2;ratioP2;P2;SDS_P1;SDS_P2;PMS_P1;PMS_P2;Temp;Humidity;BMP_temperature;BMP_pressure;BME280_temperature;BME280_humidity;BME280_pressure;Samples;Min_cycle;Max_cycle;Signal;HPM_P1;HPM_P2
2022/09/27 00:01:06;;;;;;;;;;;;;;;18.80;59.54;99913.44;5035531;28;19909;-91
2022/09/27 00:03:31;;;;;;;;;;;;;;;18.76;59.45;99905.75;5050316;28;19928;-92
2022/09/27 00:06:06;;;;;;;;;;;;;;;18.72;59.70;99896.34;5016976;28;20320;-91
2022/09/27 00:08:32;;;;;;;;;;;;;;;18.69;59.87;99899.56;5021576;28;19912;-92
2022/09/27 00:10:58;;;;;;;;;;;;;;;18.62;60.33;99904.28;5029943;28;19947;-92
2022/09/27 00:13:27;;;;;;;;;;;;;;;18.53;60.99;99902.94;5015559;28;19928;-93
2022/09/27 00:15:59;;;;;;;;;;;;;;;18.53;60.62;99902.94;5037863;28;20610;-91
2022/09/27 00:18:27;;;;;;;;;;;;;;;18.42;61.02;99903.72;5051086;28;19948;-93
2022/09/27 00:20:53;;;;;;;;;;;;;;;18.42;61.37;99895.56;5062888;28;19912;-92
2022/09/27 00:23:19;;;;;;;;;;;;;;;18.31;61.31;99892.56;5053333;28;19940;-91
2022/09/27 00:25:57;;;;;;;;;;;;;;;18.34;61.43;99897.53;5034342;28;20296;-90
2022/09/27 00:28:24;;;;;;;;;;;;;;;18.30;61.62;99895.50;5034130;28;19935;-90
2022/09/27 00:30:49;;;;;;;;;;;;;;;18.30;61.69;99899.06;5016519;28;19920;-90
2022/09/27 00:33:15;;;;;;;;;;;;;;;18.28;61.73;99903.06;5034022;28;19916;-91
2022/09/27 00:35:41;;;;;;;;;;;;;;;18.26;61.98;99903.31;5034431;28;20424;-92
2022/09/27 00:38:07;;;;;;;;;;;;;;;18.22;62.24;99910.28;5032641;28;19940;-93
2022/09/27 00:40:36;;;;;;;;;;;;;;;18.13;62.48;99907.03;5043897;28;19920;-90
2022/09/27 00:43:07;;;;;;;;;;;;;;;18.06;62.47;99905.47;5017411;28;19917;-91
2022/09/27 00:45:33;;;;;;;;;;;;;;;18.01;62.60;99902.59;5004221;28;20014;-91
2022/09/27 00:48:01;;;;;;;;;;;;;;;18.02;62.55;99896.91;5031476;28;20407;-91
2022/09/27 00:50:36;;;;;;;;;;;;;;;18.01;62.67;99899.88;5017006;28;19927;-92
2022/09/27 00:53:03;;;;;;;;;;;;;;;18.01;62.44;99892.53;5017120;28;19921;-90
2022/09/27 00:55:35;;;;;;;;;;;;;;;18.00;62.44;99895.47;5013733;28;19939;-91
2022/09/27 00:58:03;;;;;;;;;;;;;;;17.92;62.69;99894.72;5009976;28;19917;-91
2022/09/27 01:00:30;;;;;;;;;;;;;;;17.89;62.83;99897.91;5018153;28;19916;-91
2022/09/27 01:02:57;;;;;;;;;;;;;;;17.85;63.01;99890.44;5048951;28;20004;-91
2022/09/27 01:05:24;;;;;;;;;;;;;;;17.83;62.96;99895.28;5018887;28;19917;-92
2022/09/27 01:07:50;;;;;;;;;;;;;;;17.87;62.96;99891.88;5006381;28;19912;-89
2022/09/27 01:10:17;;;;;;;;;;;;;;;17.79;63.38;99885.88;5031684;28;19917;-92
2022/09/27 01:12:48;;;;;;;;;;;;;;;17.83;63.23;99885.22;5030415;28;19928;-90
2022/09/27 01:15:23;;;;;;;;;;;;;;;17.68;63.52;99882.88;5049195;28;19917;-91
2022/09/27 01:17:58;;;;;;;;;;;;;;;17.76;63.64;99883.63;5033089;28;20019;-89
2022/09/27 01:20:42;;;;;;;;;;;;;;;17.71;63.60;99876.97;5051903;28;19913;-92
2022/09/27 01:23:26;;;;;;;;;;;;;;;17.73;63.75;99868.59;5025714;28;20358;-90
2022/09/27 01:25:57;;;;;;;;;;;;;;;17.76;63.50;99865.41;5014221;28;19971;-91
2022/09/27 01:28:41;;;;;;;;;;;;;;;17.80;63.47;99861.19;5049650;28;19917;-91
2022/09/27 01:31:30;;;;;;;;;;;;;;;17.80;63.63;99858.47;5046426;28;20384;-91
2022/09/27 01:34:14;;;;;;;;;;;;;;;17.88;63.22;99865.50;5037349;28;19912;-90
2022/09/27 01:36:54;;;;;;;;;;;;;;;17.94;63.17;99870.03;5021695;28;19953;-92
2022/09/27 01:39:35;;;;;;;;;;;;;;;17.95;63.16;99862.72;5030539;28;19999;-89
2022/09/27 01:42:11;;;;;;;;;;;;;;;18.01;62.74;99869.97;5060193;28;21333;-90
2022/09/27 01:45:09;;;;;;;;;;;;;;;18.08;62.33;99857.94;5045715;28;19975;-90
2022/09/27 01:47:41;;;;;;;;;;;;;;;18.14;62.59;99857.03;5020331;28;19935;-89
2022/09/27 01:50:14;;;;;;;;;;;;;;;18.10;62.74;99849.56;5047377;28;19916;-89
2022/09/27 01:52:49;;;;;;;;;;;;;;;18.03;63.05;99857.78;5052805;28;19920;-90
2022/09/27 01:55:18;;;;;;;;;;;;;;;18.08;62.89;99862.53;5048947;28;19920;-89
2022/09/27 01:57:47;;;;;;;;;;;;;;;18.12;63.17;99855.56;5010700;28;20015;-91
2022/09/27 02:00:13;;;;;;;;;;;;;;;18.17;62.77;99847.56;5040271;28;19917;-91
2022/09/27 02:02:43;;;;;;;;;;;;;;;18.18;62.67;99845.66;5038043;28;20399;-90
2022/09/27 02:05:09;;;;;;;;;;;;;;;18.22;62.23;99839.53;5024760;28;20483;-93
2022/09/27 02:07:39;;;;;;;;;;;;;;;18.25;62.32;99835.53;5027457;28;19927;-91
2022/09/27 02:10:24;;;;;;;;;;;;;;;18.31;62.01;99827.25;5028497;28;19927;-88
2022/09/27 02:12:53;;;;;;;;;;;;;;;18.33;61.81;99827.88;5044343;28;20359;-89
2022/09/27 02:15:22;;;;;;;;;;;;;;;18.28;62.03;99822.28;5036694;28;19966;-90
2022/09/27 02:17:50;;;;;;;;;;;;;;;18.34;61.81;99834.97;5037224;28;19921;-89
2022/09/27 02:20:18;;;;;;;;;;;;;;;18.37;61.79;99841.81;5061045;28;19992;-90
2022/09/27 02:22:50;;;;;;;;;;;;;;;18.41;61.52;99843.03;5026096;28;19912;-90
2022/09/27 02:25:36;;;;;;;;;;;;;;;18.43;61.40;99845.53;5019855;28;20404;-90
2022/09/27 02:28:11;;;;;;;;;;;;;;;18.33;61.44;99857.81;5062359;28;19929;-90
2022/09/27 02:30:36;;;;;;;;;;;;;;;18.42;61.17;99860.19;5036571;28;20001;-89
2022/09/27 02:33:01;;;;;;;;;;;;;;;18.48;60.87;99861.97;5017240;28;19995;-90
2022/09/27 02:35:32;;;;;;;;;;;;;;;18.51;60.78;99859.59;5032098;28;19982;-90
2022/09/27 02:37:57;;;;;;;;;;;;;;;18.55;60.80;99852.66;5023066;28;19917;-91
2022/09/27 02:40:23;;;;;;;;;;;;;;;18.60;60.83;99851.13;5037381;28;19987;-89
2022/09/27 02:42:50;;;;;;;;;;;;;;;18.56;60.72;99850.75;5053756;28;19917;-89
2022/09/27 02:45:17;;;;;;;;;;;;;;;18.61;60.55;99856.31;5034728;28;19932;-91
2022/09/27 02:48:10;;;;;;;;;;;;;;;18.64;60.41;99847.69;5033850;28;19983;-90
2022/09/27 02:50:54;;;;;;;;;;;;;;;18.60;60.64;99837.50;5050753;28;19982;-92
2022/09/27 02:53:32;;;;;;;;;;;;;;;18.66;60.20;99845.59;5056300;28;19913;-91
2022/09/27 02:56:14;;;;;;;;;;;;;;;18.71;60.15;99853.06;5069800;28;19912;-90
2022/09/27 02:58:58;;;;;;;;;;;;;;;18.75;59.96;99837.88;5043763;28;19951;-90
2022/09/27 03:01:27;;;;;;;;;;;;;;;18.80;59.95;99831.75;5072031;28;19976;-91
2022/09/27 03:04:03;;;;;;;;;;;;;;;18.86;59.68;99839.00;5072039;28;19921;-91
2022/09/27 03:06:28;;;;;;;;;;;;;;;18.91;59.29;99853.56;5041680;28;19952;-91
2022/09/27 03:08:55;;;;;;;;;;;;;;;18.92;59.34;99851.69;5035821;28;20446;-90
2022/09/27 03:11:21;;;;;;;;;;;;;;;18.95;59.64;99862.09;5032873;28;19917;-91
2022/09/27 03:13:48;;;;;;;;;;;;;;;19.00;59.75;99861.41;5053275;28;19916;-91
2022/09/27 03:16:14;;;;;;;;;;;;;;;19.02;59.59;99864.72;5008529;28;19917;-92
2022/09/27 03:18:41;;;;;;;;;;;;;;;19.00;59.38;99856.78;5052968;28;19923;-92
2022/09/27 03:21:07;;;;;;;;;;;;;;;19.05;59.12;99854.16;5034429;28;19923;-91
2022/09/27 03:23:34;;;;;;;;;;;;;;;19.09;58.85;99851.81;5037165;28;19941;-92
2022/09/27 03:25:59;;;;;;;;;;;;;;;19.13;58.51;99839.38;5041292;28;20019;-91
2022/09/27 03:28:28;;;;;;;;;;;;;;;19.15;58.78;99838.06;5044692;28;19917;-89
2022/09/27 03:30:58;;;;;;;;;;;;;;;19.13;58.77;99832.03;5068734;28;19909;-88
2022/09/27 03:33:23;;;;;;;;;;;;;;;19.17;58.70;99814.16;5071790;28;19912;-90
2022/09/27 03:35:48;;;;;;;;;;;;;;;19.22;58.70;99815.31;5060535;28;19952;-89
2022/09/27 03:38:14;;;;;;;;;;;;;;;19.25;58.50;99806.69;5037973;28;19916;-90
2022/09/27 03:40:51;;;;;;;;;;;;;;;19.24;58.53;99791.38;5040655;28;19897;-90
2022/09/27 03:43:17;;;;;;;;;;;;;;;19.28;58.24;99787.13;5051890;28;19966;-91
2022/09/27 03:45:46;;;;;;;;;;;;;;;19.29;58.67;99786.03;5025745;28;19932;-91
2022/09/27 03:48:11;;;;;;;;;;;;;;;19.28;59.28;99792.56;5052960;28;19916;-91
2022/09/27 03:50:38;;;;;;;;;;;;;;;19.27;59.02;99785.44;5053268;28;19962;-92
2022/09/27 03:53:04;;;;;;;;;;;;;;;19.27;59.34;99785.44;5031592;28;20051;-88
2022/09/27 03:55:29;;;;;;;;;;;;;;;19.27;59.53;99780.00;5006555;28;20451;-91
2022/09/27 03:57:57;;;;;;;;;;;;;;;19.24;59.63;99775.03;5036467;28;19917;-91
2022/09/27 04:00:23;;;;;;;;;;;;;;;19.24;59.90;99780.47;5031882;28;20007;-90
2022/09/27 04:02:49;;;;;;;;;;;;;;;19.23;60.50;99778.84;5033110;28;19991;-90
2022/09/27 04:05:18;;;;;;;;;;;;;;;19.22;59.82;99788.06;5032513;28;20380;-92
2022/09/27 04:07:49;;;;;;;;;;;;;;;19.00;60.80;99798.75;5016720;28;20014;-89
2022/09/27 04:10:14;;;;;;;;;;;;;;;19.00;61.17;99794.13;5027827;28;19924;-89
2022/09/27 04:12:40;;;;;;;;;;;;;;;19.05;60.63;99788.78;5018491;28;19997;-89
2022/09/27 04:15:07;;;;;;;;;;;;;;;19.11;60.33;99784.31;5049921;28;19928;-90
2022/09/27 04:17:32;;;;;;;;;;;;;;;19.07;59.91;99783.94;5029347;28;20444;-90
2022/09/27 04:19:58;;;;;;;;;;;;;;;19.12;60.33;99781.31;5014206;28;20007;-89
2022/09/27 04:22:23;;;;;;;;;;;;;;;19.13;60.92;99793.88;5033635;28;19917;-91
2022/09/27 04:24:50;;;;;;;;;;;;;;;19.06;61.38;99782.28;5040849;28;20352;-89
2022/09/27 04:27:16;;;;;;;;;;;;;;;19.06;61.49;99782.28;5047563;28;20380;-87
2022/09/27 04:29:44;;;;;;;;;;;;;;;19.03;61.80;99785.47;5055395;28;20004;-88
2022/09/27 04:32:09;;;;;;;;;;;;;;;19.08;61.99;99780.16;5057442;28;19917;-88
2022/09/27 04:37:20;;;;;;;;;;;;;;;19.19;61.64;99787.47;5052928;28;19920;-88
2022/09/27 04:39:45;;;;;;;;;;;;;;;19.22;61.89;99796.25;5051417;28;19913;-88
2022/09/27 04:42:10;;;;;;;;;;;;;;;19.25;61.44;99798.50;5051547;28;19969;-88
2022/09/27 04:44:36;;;;;;;;;;;;;;;19.31;60.91;99792.06;5050975;28;19975;-89
2022/09/27 04:47:01;;;;;;;;;;;;;;;19.36;60.42;99800.34;5034053;28;19928;-88
2022/09/27 04:49:28;;;;;;;;;;;;;;;19.39;60.51;99803.44;5032570;28;19916;-89
2022/09/27 04:51:55;;;;;;;;;;;;;;;19.44;60.49;99797.28;5026838;28;19916;-89
2022/09/27 04:54:22;;;;;;;;;;;;;;;19.49;60.51;99799.28;5023604;28;20007;-88
2022/09/27 04:56:48;;;;;;;;;;;;;;;19.53;60.20;99795.84;5045295;28;20369;-86
2022/09/27 04:59:14;;;;;;;;;;;;;;;19.56;60.23;99792.63;5032349;28;20011;-90
2022/09/27 05:01:39;;;;;;;;;;;;;;;19.64;60.25;99790.59;5015444;28;19916;-85
2022/09/27 05:04:06;;;;;;;;;;;;;;;19.72;60.17;99803.88;5030619;28;19920;-86
2022/09/27 05:06:32;;;;;;;;;;;;;;;19.84;59.98;99792.94;5014645;28;20015;-87
2022/09/27 05:08:57;;;;;;;;;;;;;;;19.93;59.92;99786.84;5048993;28;19924;-86
2022/09/27 05:11:25;;;;;;;;;;;;;;;20.02;59.48;99796.28;5048795;28;19917;-85
2022/09/27 05:13:50;;;;;;;;;;;;;;;20.14;58.99;99798.16;5048938;28;20753;-85
2022/09/27 05:16:16;;;;;;;;;;;;;;;20.25;58.73;99797.22;5050727;28;19917;-86
2022/09/27 05:18:41;;;;;;;;;;;;;;;20.37;58.16;99795.28;5032700;28;19917;-85
2022/09/27 05:21:06;;;;;;;;;;;;;;;20.57;58.18;99783.06;5033553;28;19913;-88
2022/09/27 05:23:32;;;;;;;;;;;;;;;20.69;58.13;99785.72;5029385;28;20300;-84
2022/09/27 05:25:57;;;;;;;;;;;;;;;20.77;57.51;99786.13;5012316;28;19921;-88
2022/09/27 05:28:24;;;;;;;;;;;;;;;20.81;57.45;99800.09;5023792;28;19917;-87
2022/09/27 05:30:49;;;;;;;;;;;;;;;20.93;57.24;99800.00;5034994;28;19921;-87
2022/09/27 05:33:14;;;;;;;;;;;;;;;21.05;55.76;99793.38;5057849;28;19928;-87
2022/09/27 05:35:41;;;;;;;;;;;;;;;21.09;55.21;99807.38;5049858;28;20373;-87
2022/09/27 05:38:06;;;;;;;;;;;;;;;21.20;55.43;99806.44;5040638;28;19916;-87
2022/09/27 05:40:31;;;;;;;;;;;;;;;21.20;54.18;99802.88;5009974;28;19917;-87
2022/09/27 05:42:58;;;;;;;;;;;;;;;21.37;52.80;99795.44;5046557;28;19917;-89
2022/09/27 05:45:24;;;;;;;;;;;;;;;21.56;51.65;99790.53;5032632;28;20210;-85
2022/09/27 05:48:15;;;;;;;;;;;;;;;21.81;51.50;99786.47;5029736;28;19916;-86
2022/09/27 05:50:41;;;;;;;;;;;;;;;21.89;51.36;99775.91;5032953;28;20274;-85
2022/09/27 05:53:06;;;;;;;;;;;;;;;21.90;50.47;99760.28;5031963;28;19928;-86
2022/09/27 05:55:32;;;;;;;;;;;;;;;21.97;50.14;99760.91;5030653;28;19939;-85
2022/09/27 05:58:03;;;;;;;;;;;;;;;22.01;49.67;99761.22;5029967;28;20487;-83
2022/09/27 06:00:28;;;;;;;;;;;;;;;22.08;50.78;99775.53;5048749;28;20384;-83
2022/09/27 06:02:57;;;;;;;;;;;;;;;22.10;49.82;99779.66;5031723;28;19912;-84
2022/09/27 06:05:22;;;;;;;;;;;;;;;22.70;48.93;99782.41;5049150;28;20524;-83
2022/09/27 06:07:50;;;;;;;;;;;;;;;22.91;48.29;99786.13;5032877;28;19912;-83
2022/09/27 06:10:16;;;;;;;;;;;;;;;23.68;46.87;99773.66;5049639;28;19916;-83
2022/09/27 06:12:43;;;;;;;;;;;;;;;23.99;45.21;99771.84;5030100;28;20304;-82
2022/09/27 06:15:09;;;;;;;;;;;;;;;24.54;43.68;99777.72;5031462;28;20435;-83
2022/09/27 06:17:34;;;;;;;;;;;;;;;24.92;41.73;99778.22;5031670;28;19995;-84
2022/09/27 06:20:00;;;;;;;;;;;;;;;25.03;41.62;99777.09;5031297;28;19913;-83
2022/09/27 06:22:25;;;;;;;;;;;;;;;24.74;43.10;99773.28;5049744;28;19912;-83
2022/09/27 06:24:51;;;;;;;;;;;;;;;25.22;42.39;99771.88;5010748;28;19931;-83
2022/09/27 06:27:17;;;;;;;;;;;;;;;25.46;41.15;99773.97;5013669;28;19949;-84
2022/09/27 06:29:43;;;;;;;;;;;;;;;25.77;41.47;99780.16;5030948;28;19916;-90
2022/09/27 06:32:09;;;;;;;;;;;;;;;25.86;39.78;99781.25;5032805;28;19923;-88
2022/09/27 06:34:35;;;;;;;;;;;;;;;26.27;39.83;99778.25;5044158;28;19940;-82
2022/09/27 06:37:00;;;;;;;;;;;;;;;26.14;39.39;99772.56;5048447;28;20364;-83
2022/09/27 06:39:26;;;;;;;;;;;;;;;26.10;39.33;99769.53;5010454;28;19971;-86
2022/09/27 06:41:58;;;;;;;;;;;;;;;26.59;38.65;99770.56;5049529;28;19938;-81
2022/09/27 06:44:25;;;;;;;;;;;;;;;26.98;38.06;99773.25;5033061;28;19927;-83
2022/09/27 06:46:52;;;;;;;;;;;;;;;27.13;38.11;99762.03;5033798;28;19920;-82
2022/09/27 06:49:18;;;;;;;;;;;;;;;27.43;37.68;99751.78;5051037;28;19935;-81
2022/09/27 06:51:44;;;;;;;;;;;;;;;27.34;36.09;99753.56;5038402;28;19979;-82
2022/09/27 06:54:09;;;;;;;;;;;;;;;27.41;36.25;99754.03;5016827;28;19916;-82
2022/09/27 06:56:35;;;;;;;;;;;;;;;27.33;36.88;99758.25;5005002;28;19913;-82
2022/09/27 07:02:05;;;;;;;;;;;;;;;26.91;37.89;99762.56;4971117;28;19921;-81
2022/09/27 07:04:32;;;;;;;;;;;;;;;26.95;37.13;99760.03;4971758;28;19918;-83
2022/09/27 07:06:58;;;;;;;;;;;;;;;26.98;37.42;99756.69;4995349;28;19913;-81
2022/09/27 07:09:23;;;;;;;;;;;;;;;26.93;37.51;99754.00;5047086;28;19920;-80
2022/09/27 07:11:50;;;;;;;;;;;;;;;26.92;37.80;99757.84;5051312;28;19916;-81
2022/09/27 07:14:16;;;;;;;;;;;;;;;26.52;38.08;99748.81;5026949;28;19917;-81
2022/09/27 07:16:43;;;;;;;;;;;;;;;26.76;38.04;99745.31;5033351;28;19916;-83
2022/09/27 07:19:10;;;;;;;;;;;;;;;26.64;37.78;99745.72;5063386;28;20015;-84
2022/09/27 07:21:36;;;;;;;;;;;;;;;27.64;36.82;99740.50;5041541;28;20015;-86
2022/09/27 07:24:01;;;;;;;;;;;;;;;28.47;35.35;99741.78;5032497;28;20031;-83
2022/09/27 07:26:27;;;;;;;;;;;;;;;29.40;33.40;99747.22;5049204;28;20299;-85
2022/09/27 07:28:53;;;;;;;;;;;;;;;29.32;32.73;99749.91;5029506;28;19978;-85
2022/09/27 07:31:19;;;;;;;;;;;;;;;29.78;31.79;99757.25;5052365;28;19920;-87
2022/09/27 07:33:47;;;;;;;;;;;;;;;30.35;30.84;99752.09;5046293;28;19917;-85
2022/09/27 07:36:13;;;;;;;;;;;;;;;30.55;30.25;99736.88;5054029;28;19921;-88
2022/09/27 07:38:40;;;;;;;;;;;;;;;30.99;29.58;99739.91;5034490;28;19920;-86
2022/09/27 07:41:08;;;;;;;;;;;;;;;31.94;28.34;99750.47;5028837;28;19917;-86
2022/09/27 07:43:33;;;;;;;;;;;;;;;32.87;26.92;99739.94;5021359;28;19916;-87
2022/09/27 07:45:59;;;;;;;;;;;;;;;32.98;26.74;99750.38;5050678;28;19994;-87
2022/09/27 07:48:27;;;;;;;;;;;;;;;33.49;26.36;99755.25;5023736;28;19983;-87
2022/09/27 07:50:52;;;;;;;;;;;;;;;33.56;25.78;99750.78;5046080;28;19952;-86
2022/09/27 07:53:17;;;;;;;;;;;;;;;33.97;25.12;99740.00;5014935;28;19925;-88
2022/09/27 07:55:43;;;;;;;;;;;;;;;34.22;25.23;99732.63;5031260;28;19917;-84
2022/09/27 07:58:11;;;;;;;;;;;;;;;34.05;25.75;99739.13;5032807;28;19947;-86
2022/09/27 08:00:36;;;;;;;;;;;;;;;33.68;25.81;99730.56;5029829;28;20377;-85
2022/09/27 08:03:15;;;;;;;;;;;;;;;33.94;25.48;99737.91;5025479;28;19916;-86
2022/09/27 08:05:42;;;;;;;;;;;;;;;33.58;25.78;99726.19;5007223;28;20011;-86
2022/09/27 08:08:10;;;;;;;;;;;;;;;33.28;26.32;99710.63;5034846;28;19923;-82
2022/09/27 08:10:35;;;;;;;;;;;;;;;33.12;26.73;99722.34;5045355;28;19917;-84
2022/09/27 08:13:04;;;;;;;;;;;;;;;33.59;26.48;99736.19;5044004;28;19920;-88
2022/09/27 08:15:30;;;;;;;;;;;;;;;33.71;26.33;99735.44;5029920;28;19913;-85
2022/09/27 08:17:56;;;;;;;;;;;;;;;33.68;26.57;99719.41;5022872;28;20030;-86
2022/09/27 08:20:22;;;;;;;;;;;;;;;33.37;26.90;99712.22;5047342;28;19961;-85
2022/09/27 08:22:48;;;;;;;;;;;;;;;32.85;27.30;99694.91;5012918;28;20400;-86
2022/09/27 08:25:13;;;;;;;;;;;;;;;32.50;27.80;99693.06;5013429;28;19917;-84
2022/09/27 08:27:39;;;;;;;;;;;;;;;32.74;27.97;99688.91;5021451;28;19965;-85
2022/09/27 08:30:04;;;;;;;;;;;;;;;32.96;27.24;99682.25;5050785;28;19913;-85
2022/09/27 08:32:29;;;;;;;;;;;;;;;33.08;27.56;99687.13;5045030;28;19927;-82
2022/09/27 08:34:55;;;;;;;;;;;;;;;32.34;27.86;99678.03;5028828;28;19916;-85
2022/09/27 08:37:22;;;;;;;;;;;;;;;32.29;28.51;99681.00;5028509;28;19916;-85
2022/09/27 08:39:47;;;;;;;;;;;;;;;31.93;29.06;99673.78;5029574;28;19929;-85
2022/09/27 08:42:31;;;;;;;;;;;;;;;31.78;29.18;99674.31;5029310;28;20300;-84
2022/09/27 08:45:03;;;;;;;;;;;;;;;31.31;29.88;99685.97;5050322;28;19959;-83
2022/09/27 08:47:38;;;;;;;;;;;;;;;31.67;29.13;99688.50;5048968;28;21403;-85
2022/09/27 08:50:18;;;;;;;;;;;;;;;31.83;28.92;99690.81;5047233;28;19964;-85
2022/09/27 08:53:02;;;;;;;;;;;;;;;31.59;29.35;99694.06;5031450;28;20027;-84
2022/09/27 08:55:36;;;;;;;;;;;;;;;31.48;29.12;99694.34;5017192;28;19921;-84
2022/09/27 08:58:01;;;;;;;;;;;;;;;31.44;29.65;99689.78;5047777;28;19935;-85
2022/09/27 09:00:27;;;;;;;;;;;;;;;31.50;29.67;99678.19;5033608;28;19928;-86
2022/09/27 09:02:52;;;;;;;;;;;;;;;32.01;29.05;99678.56;5028860;28;19920;-85
2022/09/27 09:05:25;;;;;;;;;;;;;;;31.81;29.42;99676.41;5048970;28;20056;-84
2022/09/27 09:07:56;;;;;;;;;;;;;;;31.58;29.43;99664.63;5048240;28;19932;-84
2022/09/27 09:13:18;;;;;;;;;;;;;;;30.82;30.92;99663.75;5035325;28;19936;-85
2022/09/27 09:15:55;;;;;;;;;;;;;;;30.58;31.78;99668.84;5051768;28;19908;-82
2022/09/27 09:18:24;;;;;;;;;;;;;;;30.56;32.28;99671.16;5051686;28;19924;-84
2022/09/27 09:21:06;;;;;;;;;;;;;;;30.64;32.23;99667.59;5008536;28;19978;-85
2022/09/27 09:23:54;;;;;;;;;;;;;;;30.09;33.01;99663.97;5039694;28;19939;-84
2022/09/27 09:26:29;;;;;;;;;;;;;;;29.86;33.56;99665.94;5039793;28;19920;-85
2022/09/27 09:28:54;;;;;;;;;;;;;;;29.92;33.74;99672.16;5050171;28;19921;-85
2022/09/27 09:31:32;;;;;;;;;;;;;;;30.17;33.75;99675.44;5048785;28;19917;-85
2022/09/27 09:33:58;;;;;;;;;;;;;;;30.03;33.85;99681.84;5050157;28;19921;-85
2022/09/27 09:36:28;;;;;;;;;;;;;;;29.92;34.30;99680.47;5032096;28;19920;-85
2022/09/27 09:38:54;;;;;;;;;;;;;;;29.61;34.19;99688.63;5032139;28;19916;-84
2022/09/27 09:41:22;;;;;;;;;;;;;;;29.27;35.21;99680.81;5032709;28;19944;-83
2022/09/27 09:43:51;;;;;;;;;;;;;;;28.99;35.43;99669.75;5049285;28;20360;-86
2022/09/27 09:46:19;;;;;;;;;;;;;;;28.83;36.17;99677.53;5032244;28;19912;-84
2022/09/27 09:48:51;;;;;;;;;;;;;;;28.38;37.06;99682.75;5050587;28;19973;-82
2022/09/27 09:51:21;;;;;;;;;;;;;;;28.26;37.02;99679.63;5021707;28;20004;-85
2022/09/27 09:54:03;;;;;;;;;;;;;;;28.15;37.54;99679.00;5041787;28;20357;-83
2022/09/27 09:56:59;;;;;;;;;;;;;;;28.27;37.48;99676.56;5032057;28;19917;-85
2022/09/27 09:59:30;;;;;;;;;;;;;;;28.22;37.83;99673.09;5046004;28;20024;-86
2022/09/27 10:01:57;;;;;;;;;;;;;;;29.58;35.57;99670.72;5032554;28;19970;-86
2022/09/27 10:04:23;;;;;;;;;;;;;;;30.39;33.66;99661.59;5016013;28;19916;-85
2022/09/27 10:06:48;;;;;;;;;;;;;;;30.69;32.97;99659.13;5049787;28;19936;-85
2022/09/27 10:09:15;;;;;;;;;;;;;;;31.46;31.62;99651.41;5049683;28;20341;-84
2022/09/27 10:11:44;;;;;;;;;;;;;;;31.17;32.07;99651.97;5012831;28;19923;-84
2022/09/27 10:14:10;;;;;;;;;;;;;;;30.64;32.88;99635.09;5028714;28;19921;-84
2022/09/27 10:16:36;;;;;;;;;;;;;;;29.72;34.34;99625.56;5032238;28;20299;-84
2022/09/27 10:19:01;;;;;;;;;;;;;;;29.63;34.90;99636.53;5017585;28;20277;-84
2022/09/27 10:21:28;;;;;;;;;;;;;;;29.62;34.89;99632.16;5053443;28;19935;-84
2022/09/27 10:24:02;;;;;;;;;;;;;;;29.63;34.62;99622.69;5035441;28;19917;-85
2022/09/27 10:26:29;;;;;;;;;;;;;;;29.50;35.15;99618.84;5033886;28;20377;-83
2022/09/27 10:28:54;;;;;;;;;;;;;;;29.33;35.81;99615.91;5052277;28;19912;-84
2022/09/27 10:31:21;;;;;;;;;;;;;;;29.41;35.46;99609.66;5036477;28;20027;-86
2022/09/27 10:33:51;;;;;;;;;;;;;;;30.59;33.67;99613.06;5036272;28;19912;-84
2022/09/27 10:36:22;;;;;;;;;;;;;;;30.28;34.24;99610.31;5035669;28;19913;-84
2022/09/27 10:38:52;;;;;;;;;;;;;;;30.26;34.05;99613.41;5053403;28;19948;-85
2022/09/27 10:41:27;;;;;;;;;;;;;;;30.33;34.18;99601.88;5054620;28;20024;-84
2022/09/27 10:43:56;;;;;;;;;;;;;;;29.61;35.19;99597.25;5051686;28;19924;-85
2022/09/27 10:46:25;;;;;;;;;;;;;;;30.42;34.42;99596.38;5036123;28;19913;-85
2022/09/27 10:49:11;;;;;;;;;;;;;;;32.44;31.37;99585.88;5036519;28;19956;-85
2022/09/27 10:51:37;;;;;;;;;;;;;;;34.33;28.08;99574.00;5054117;28;19916;-86
2022/09/27 10:54:02;;;;;;;;;;;;;;;35.03;27.60;99585.91;5053740;28;20444;-86
2022/09/27 10:56:31;;;;;;;;;;;;;;;36.52;25.20;99575.72;5035555;28;19913;-86
2022/09/27 10:59:01;;;;;;;;;;;;;;;36.76;24.79;99566.31;5035801;28;19921;-84
2022/09/27 11:01:38;;;;;;;;;;;;;;;35.88;25.47;99561.66;5033292;28;19966;-84
2022/09/27 11:04:05;;;;;;;;;;;;;;;35.11;26.94;99559.03;5034031;28;19966;-85
2022/09/27 11:06:37;;;;;;;;;;;;;;;33.76;28.59;99554.09;5052800;28;19920;-84
2022/09/27 11:09:28;;;;;;;;;;;;;;;33.36;29.15;99557.38;5051543;28;19924;-84
2022/09/27 11:12:10;;;;;;;;;;;;;;;33.00;29.75;99557.94;5049141;28;19917;-84
2022/09/27 11:14:35;;;;;;;;;;;;;;;33.28;29.33;99543.53;5017351;28;19917;-84
2022/09/27 11:17:03;;;;;;;;;;;;;;;32.34;30.64;99552.88;5026039;28;20424;-84
2022/09/27 11:19:34;;;;;;;;;;;;;;;31.79;31.67;99550.88;5050067;28;19948;-84
2022/09/27 11:22:07;;;;;;;;;;;;;;;31.24;33.00;99552.38;5034960;28;19917;-83
2022/09/27 11:24:47;;;;;;;;;;;;;;;31.07;33.03;99553.16;5053088;28;19920;-85
2022/09/27 11:27:27;;;;;;;;;;;;;;;30.89;33.60;99544.00;5042636;28;19988;-85
2022/09/27 11:30:02;;;;;;;;;;;;;;;30.83;33.60;99554.41;5052320;28;19924;-85
2022/09/27 11:32:37;;;;;;;;;;;;;;;30.58;33.99;99563.47;5052787;28;19981;-84
2022/09/27 11:35:02;;;;;;;;;;;;;;;30.27;34.55;99542.16;5053733;28;19932;-82
2022/09/27 11:37:46;;;;;;;;;;;;;;;29.89;35.25;99537.03;5055028;28;19920;-83
2022/09/27 11:40:14;;;;;;;;;;;;;;;29.94;35.09;99527.78;5053286;28;20019;-82
2022/09/27 11:42:58;;;;;;;;;;;;;;;29.94;35.17;99534.13;5049839;28;19920;-84
2022/09/27 11:45:36;;;;;;;;;;;;;;;29.96;35.36;99526.31;5057748;28;19916;-84
2022/09/27 11:48:04;;;;;;;;;;;;;;;29.92;37.43;99530.03;5048128;28;19924;-85
2022/09/27 11:50:30;;;;;;;;;;;;;;;29.85;36.89;99524.94;5033515;28;19921;-87
2022/09/27 11:52:58;;;;;;;;;;;;;;;30.27;35.92;99514.41;5051721;28;20358;-86
2022/09/27 11:55:26;;;;;;;;;;;;;;;30.61;36.43;99510.13;5033711;28;20625;-85
2022/09/27 11:58:10;;;;;;;;;;;;;;;30.48;35.86;99506.34;5043680;28;19928;-86
2022/09/27 12:00:39;;;;;;;;;;;;;;;31.07;36.20;99506.81;5050544;28;19917;-85
2022/09/27 12:03:43;;;;;;;;;;;;;;;30.78;36.71;99501.84;5010727;28;19992;-85
2022/09/27 12:06:11;;;;;;;;;;;;;;;30.32;37.73;99517.06;4952685;28;19926;-86
2022/09/27 12:08:43;;;;;;;;;;;;;;;29.96;38.48;99506.91;4951169;28;20040;-86
2022/09/27 12:11:23;;;;;;;;;;;;;;;29.77;39.01;99507.16;5003260;28;19931;-85
2022/09/27 12:13:51;;;;;;;;;;;;;;;30.32;38.09;99489.34;5022194;28;19988;-81
2022/09/27 12:16:16;;;;;;;;;;;;;;;30.37;37.78;99486.44;5019883;28;20404;-83
2022/09/27 12:18:42;;;;;;;;;;;;;;;30.34;37.55;99500.91;5013134;28;19925;-84
2022/09/27 12:21:08;;;;;;;;;;;;;;;29.83;37.11;99494.81;5022121;28;19921;-82
2022/09/27 12:23:38;;;;;;;;;;;;;;;29.72;36.45;99493.44;5033529;28;19931;-83
2022/09/27 12:26:09;;;;;;;;;;;;;;;29.49;36.78;99500.91;5018097;28;19966;-83
2022/09/27 12:28:51;;;;;;;;;;;;;;;29.19;37.04;99497.75;5032002;28;19925;-82
2022/09/27 12:31:35;;;;;;;;;;;;;;;28.86;38.10;99504.59;5027189;28;19922;-85
2022/09/27 12:34:17;;;;;;;;;;;;;;;28.58;38.41;99493.56;5049627;28;20384;-83
2022/09/27 12:36:46;;;;;;;;;;;;;;;28.49;39.49;99504.53;5028036;28;19978;-87
2022/09/27 12:39:18;;;;;;;;;;;;;;;28.40;39.27;99509.94;5048215;28;19972;-85
2022/09/27 12:41:45;;;;;;;;;;;;;;;28.14;39.70;99500.50;5046260;28;19920;-85
2022/09/27 12:44:10;;;;;;;;;;;;;;;28.39;38.94;99496.44;5026768;28;19916;-85
2022/09/27 12:46:58;;;;;;;;;;;;;;;28.53;39.28;99501.97;5030316;28;19924;-87
2022/09/27 12:49:36;;;;;;;;;;;;;;;28.44;39.12;99495.50;5022406;28;19924;-87
2022/09/27 12:52:08;;;;;;;;;;;;;;;28.39;39.02;99486.19;5033733;28;19935;-87
2022/09/27 12:54:35;;;;;;;;;;;;;;;28.49;39.16;99473.31;5003892;28;19913;-86
2022/09/27 12:57:03;;;;;;;;;;;;;;;28.63;39.24;99485.16;5035247;28;20387;-88
2022/09/27 12:59:42;;;;;;;;;;;;;;;28.66;38.73;99489.25;5017785;28;19947;-88
2022/09/27 13:02:08;;;;;;;;;;;;;;;28.64;38.88;99488.78;5003300;28;19917;-87
2022/09/27 13:04:49;;;;;;;;;;;;;;;28.94;38.58;99478.94;5041754;28;20274;-88
2022/09/27 13:07:34;;;;;;;;;;;;;;;28.74;38.79;99492.13;5039803;28;19917;-87
2022/09/27 13:10:06;;;;;;;;;;;;;;;28.62;39.30;99486.31;5036836;28;19920;-85